Time;durP1;ratioP1;P1;durP2;ratioP2;P2;SDS_P1;SDS_P2;PMS_P1;PMS_P2;Temp;Humidity;BMP_temperature;BMP_pressure;BME280_temperature;BME280_humidity;BME280_pressure;Samples;Min_cycle;Max_cycle;Signal;HPM_P1;HPM_P2
2023/07/13 00:02:10;;;;;;;7.00;2.30;;;15.90;99.90;;;;;;5046700;28;20131;-49
2023/07/13 00:04:36;;;;;;;5.18;1.45;;;15.80;99.90;;;;;;5044364;28;20470;-51
2023/07/13 00:07:02;;;;;;;8.75;1.88;;;15.80;99.90;;;;;;5045582;28;20131;-50
2023/07/13 00:09:28;;;;;;;7.10;0.98;;;15.80;99.90;;;;;;5043838;28;20047;-49
2023/07/13 00:11:56;;;;;;;8.27;1.70;;;15.80;99.90;;;;;;5043175;28;20116;-50
2023/07/13 00:14:22;;;;;;;16.30;2.40;;;15.80;99.90;;;;;;5043263;28;20045;-50
2023/07/13 00:16:48;;;;;;;5.65;1.60;;;15.80;99.90;;;;;;5044754;28;20071;-51
2023/07/13 00:19:14;;;;;;;12.40;1.50;;;15.80;99.90;;;;;;5047698;28;20079;-51
2023/07/13 00:21:40;;;;;;;8.43;1.40;;;15.80;99.90;;;;;;5046726;28;20108;-52
2023/07/13 00:24:07;;;;;;;11.60;1.55;;;15.80;99.90;;;;;;5046501;28;20037;-51
2023/07/13 00:26:33;;;;;;;7.13;1.20;;;15.80;99.90;;;;;;5044520;28;20048;-50
2023/07/13 00:28:59;;;;;;;9.02;1.55;;;15.80;99.90;;;;;;5044321;28;20451;-49
2023/07/13 00:31:25;;;;;;;10.80;1.23;;;15.80;99.90;;;;;;5044364;28;20086;-49
2023/07/13 00:33:51;;;;;;;6.47;1.60;;;15.80;99.90;;;;;;5043098;28;20529;-51
2023/07/13 00:36:17;;;;;;;9.90;1.55;;;15.80;99.90;;;;;;5043480;28;20044;-50
2023/07/13 00:38:43;;;;;;;11.00;1.45;;;15.70;99.90;;;;;;5045102;28;20044;-50
2023/07/13 00:41:08;;;;;;;5.88;1.48;;;15.70;99.90;;;;;;5047414;28;20041;-51
2023/07/13 00:43:34;;;;;;;11.90;1.80;;;15.70;99.90;;;;;;5046159;28;20033;-50
2023/07/13 00:46:12;;;;;;;9.00;1.92;;;15.70;99.90;;;;;;5044985;28;20150;-54
2023/07/13 00:48:38;;;;;;;15.00;2.22;;;15.60;99.90;;;;;;5044247;28;20044;-51
2023/07/13 00:51:04;;;;;;;9.70;1.95;;;15.60;99.90;;;;;;5045267;28;20036;-49
2023/07/13 00:53:31;;;;;;;6.55;1.65;;;15.60;99.90;;;;;;5044068;28;20537;-51
2023/07/13 00:55:57;;;;;;;9.05;2.05;;;15.50;99.90;;;;;;5043239;28;20034;-49
2023/07/13 00:58:25;;;;;;;5.68;1.02;;;15.50;99.90;;;;;;5047108;28;20044;-52
2023/07/13 01:00:52;;;;;;;8.00;1.38;;;15.50;99.90;;;;;;5047668;28;20033;-50
2023/07/13 01:03:18;;;;;;;8.02;1.83;;;15.50;99.90;;;;;;5051649;28;20123;-54
2023/07/13 01:05:48;;;;;;;11.30;1.92;;;15.50;99.90;;;;;;5050608;28;20041;-52
2023/07/13 01:08:14;;;;;;;5.88;1.10;;;15.50;99.90;;;;;;5049530;28;20397;-50
2023/07/13 01:10:39;;;;;;;8.00;1.58;;;15.50;99.90;;;;;;5048992;28;20029;-50
2023/07/13 01:13:10;;;;;;;8.45;1.90;;;15.60;99.90;;;;;;5048395;28;20045;-50
2023/07/13 01:15:44;;;;;;;9.18;1.58;;;15.60;99.90;;;;;;5047543;28;20428;-54
2023/07/13 01:18:20;;;;;;;7.97;1.83;;;15.60;99.90;;;;;;5046436;28;20589;-49
2023/07/13 01:21:00;;;;;;;6.20;1.70;;;15.60;99.90;;;;;;5040831;28;20037;-50
2023/07/13 01:23:27;;;;;;;7.32;1.67;;;15.70;99.90;;;;;;5040517;28;20037;-49
2023/07/13 01:25:53;;;;;;;19.08;2.45;;;15.70;99.90;;;;;;5040230;28;20037;-54
2023/07/13 01:28:19;;;;;;;;;;;15.70;99.90;;;;;;5036018;28;20350;-50
2023/07/13 01:30:46;;;;;;;7.32;1.92;;;15.70;99.90;;;;;;5040280;28;19925;-52
2023/07/13 01:33:17;;;;;;;13.93;2.33;;;15.70;99.90;;;;;;5032932;28;20041;-49
2023/07/13 01:35:44;;;;;;;7.70;1.88;;;15.80;99.90;;;;;;5039719;28;20048;-51
2023/07/13 01:38:11;;;;;;;10.35;1.75;;;15.80;99.90;;;;;;5037281;28;20080;-49
2023/07/13 01:40:38;;;;;;;9.15;2.22;;;15.80;99.90;;;;;;5032685;28;20045;-50
2023/07/13 01:43:04;;;;;;;13.68;2.65;;;15.80;99.90;;;;;;5033079;28;20037;-49
2023/07/13 01:45:30;;;;;;;8.40;2.08;;;15.80;99.90;;;;;;5036585;28;20036;-49
2023/07/13 01:47:56;;;;;;;;;;;15.80;99.90;;;;;;5033174;28;20061;-50
2023/07/13 01:50:21;;;;;;;6.30;1.80;;;15.80;99.90;;;;;;5033744;28;19991;-50
2023/07/13 01:52:47;;;;;;;10.90;1.90;;;15.80;99.90;;;;;;5033642;28;20555;-52
2023/07/13 01:55:13;;;;;;;11.35;2.08;;;15.80;99.90;;;;;;5045607;28;20048;-55
2023/07/13 01:57:39;;;;;;;12.48;2.35;;;15.80;99.90;;;;;;5047656;28;20398;-55
2023/07/13 02:00:07;;;;;;;8.95;1.55;;;15.80;99.90;;;;;;5038785;28;20045;-52
2023/07/13 02:02:32;;;;;;;13.68;2.22;;;15.80;99.90;;;;;;5042627;28;20037;-53
2023/07/13 02:04:58;;;;;;;12.32;2.40;;;15.80;99.90;;;;;;5032841;28;20478;-50
2023/07/13 02:07:24;;;;;;;9.93;1.65;;;15.80;99.90;;;;;;5039489;28;20073;-49
2023/07/13 02:09:49;;;;;;;13.02;2.25;;;15.80;99.90;;;;;;5037795;28;20476;-56
2023/07/13 02:12:15;;;;;;;5.65;1.75;;;15.80;99.90;;;;;;5049217;28;20037;-56
2023/07/13 02:14:41;;;;;;;9.98;1.73;;;15.80;99.90;;;;;;5039785;28;20072;-53
2023/07/13 02:17:06;;;;;;;13.80;1.95;;;15.80;99.90;;;;;;5038977;28;20037;-51
2023/07/13 02:19:32;;;;;;;10.40;2.47;;;15.80;99.90;;;;;;5036510;28;20175;-49
2023/07/13 02:21:58;;;;;;;12.70;2.17;;;15.80;99.90;;;;;;5041740;28;20186;-54
2023/07/13 02:24:24;;;;;;;10.45;1.98;;;15.80;99.90;;;;;;5029921;28;20328;-55
2023/07/13 02:26:49;;;;;;;9.30;2.78;;;15.80;99.90;;;;;;5036623;28;20040;-54
2023/07/13 02:29:15;;;;;;;6.53;2.45;;;15.80;99.90;;;;;;5036848;28;20037;-53
2023/07/13 02:31:40;;;;;;;13.32;2.65;;;15.70;99.90;;;;;;5037488;28;20028;-52
2023/07/13 02:34:06;;;;;;;13.20;2.28;;;15.70;99.90;;;;;;5030921;28;20501;-54
2023/07/13 02:36:32;;;;;;;5.82;1.65;;;15.70;99.90;;;;;;5034347;28;20033;-55
2023/07/13 02:39:01;;;;;;;17.20;2.60;;;15.70;99.90;;;;;;5034488;28;20029;-52
2023/07/13 02:41:27;;;;;;;10.23;2.22;;;15.70;99.90;;;;;;5034673;28;20406;-55
2023/07/13 02:43:52;;;;;;;10.45;1.92;;;15.70;99.90;;;;;;5032320;28;20034;-55
2023/07/13 02:46:19;;;;;;;12.07;2.38;;;15.60;99.90;;;;;;5033416;28;20124;-49
2023/07/13 02:48:45;;;;;;;12.98;2.50;;;15.60;99.90;;;;;;5034451;28;20565;-49
2023/07/13 02:51:11;;;;;;;;;;;15.70;99.90;;;;;;5032292;28;20041;-56
2023/07/13 02:53:37;;;;;;;9.32;1.92;;;15.70;99.90;;;;;;5032733;28;19975;-51
2023/07/13 02:56:03;;;;;;;13.10;2.47;;;15.60;99.90;;;;;;5041197;28;20033;-51
2023/07/13 02:58:28;;;;;;;12.90;2.53;;;15.60;99.90;;;;;;5033399;28;20041;-55
2023/07/13 03:00:56;;;;;;;6.78;1.75;;;15.60;99.90;;;;;;5031673;28;20047;-55
2023/07/13 03:03:21;;;;;;;8.13;1.80;;;15.60;99.90;;;;;;5032251;28;20037;-53
2023/07/13 03:05:50;;;;;;;15.30;2.95;;;15.60;99.90;;;;;;5033463;28;20037;-53
2023/07/13 03:08:17;;;;;;;11.40;2.80;;;15.60;99.90;;;;;;5038848;28;20046;-53
2023/07/13 03:10:43;;;;;;;13.50;1.95;;;15.60;99.90;;;;;;5031752;28;20060;-55
2023/07/13 03:13:09;;;;;;;8.95;1.98;;;15.50;99.90;;;;;;5036740;28;20049;-55
2023/07/13 03:15:34;;;;;;;10.07;2.38;;;15.50;99.90;;;;;;5030560;28;20045;-53
2023/07/13 03:18:00;;;;;;;10.90;2.58;;;15.50;99.90;;;;;;5040477;28;20037;-54
2023/07/13 03:20:26;;;;;;;17.30;3.03;;;15.50;99.90;;;;;;5039738;28;20041;-50
2023/07/13 03:22:51;;;;;;;10.20;2.47;;;15.50;99.90;;;;;;5037181;28;20068;-51
2023/07/13 03:25:17;;;;;;;10.73;2.10;;;15.50;99.90;;;;;;5030676;28;20406;-54
2023/07/13 03:27:42;;;;;;;11.30;2.58;;;15.40;99.90;;;;;;5036070;28;20033;-53
2023/07/13 03:30:08;;;;;;;16.48;2.83;;;15.50;99.90;;;;;;5030755;28;20033;-50
2023/07/13 03:32:34;;;;;;;11.32;2.75;;;15.40;99.90;;;;;;5036235;28;20449;-51
2023/07/13 03:35:01;;;;;;;7.57;2.22;;;15.40;99.90;;;;;;5030135;28;20116;-54
2023/07/13 03:37:26;;;;;;;5.82;2.10;;;15.40;99.90;;;;;;5031306;28;20564;-55
2023/07/13 03:39:52;;;;;;;7.90;2.38;;;15.40;99.90;;;;;;5030978;28;20041;-54
2023/07/13 03:42:17;;;;;;;8.93;2.08;;;15.30;99.90;;;;;;5030524;28;20554;-50
2023/07/13 03:44:52;;;;;;;13.10;2.55;;;15.40;99.90;;;;;;5037912;28;20048;-53
2023/07/13 03:47:17;;;;;;;6.07;1.70;;;15.40;99.90;;;;;;5033684;28;20052;-50
2023/07/13 03:49:43;;;;;;;9.57;2.90;;;15.30;99.90;;;;;;5038968;28;20034;-54
2023/07/13 03:52:08;;;;;;;12.43;3.08;;;15.30;99.90;;;;;;5036566;28;20518;-52
2023/07/13 03:54:34;;;;;;;7.05;2.78;;;15.30;99.90;;;;;;5036492;28;20044;-53
2023/07/13 03:57:00;;;;;;;9.05;2.47;;;15.30;99.90;;;;;;5035419;28;20033;-49
2023/07/13 03:59:25;;;;;;;7.85;2.22;;;15.30;99.90;;;;;;5036911;28;20033;-50
2023/07/13 04:01:51;;;;;;;5.65;1.83;;;15.30;99.90;;;;;;5030186;28;20033;-54
2023/07/13 04:04:16;;;;;;;10.13;2.53;;;15.30;99.90;;;;;;5038698;28;20041;-49
2023/07/13 04:06:42;;;;;;;13.68;3.25;;;15.30;99.90;;;;;;5036777;28;20550;-50
2023/07/13 04:09:09;;;;;;;11.60;2.45;;;15.30;99.90;;;;;;5040645;28;20034;-54
2023/07/13 04:11:36;;;;;;;15.30;2.85;;;15.20;99.90;;;;;;5037194;28;20509;-51
2023/07/13 04:14:02;;;;;;;15.60;3.78;;;15.20;99.90;;;;;;5043474;28;20045;-53
2023/07/13 04:16:28;;;;;;;7.53;2.50;;;15.20;99.90;;;;;;5036693;28;20037;-54
2023/07/13 04:18:59;;;;;;;7.82;2.13;;;15.20;99.90;;;;;;5039280;28;20116;-51
2023/07/13 04:21:29;;;;;;;8.45;2.17;;;15.20;99.90;;;;;;5047747;28;20094;-53
2023/07/13 04:23:55;;;;;;;6.88;2.35;;;15.10;99.90;;;;;;5040000;28;20405;-50
2023/07/13 04:26:21;;;;;;;20.05;4.30;;;15.10;99.90;;;;;;5032099;28;20045;-49
2023/07/13 04:28:47;;;;;;;7.07;2.78;;;15.00;99.90;;;;;;5031856;28;20080;-54
2023/07/13 04:31:13;;;;;;;;;;;15.00;99.90;;;;;;5030364;28;20387;-50
2023/07/13 04:33:38;;;;;;;12.80;2.42;;;15.00;99.90;;;;;;5032413;28;19928;-53
2023/07/13 04:36:04;;;;;;;5.65;2.55;;;15.10;99.90;;;;;;5031082;28;20536;-50
2023/07/13 04:38:32;;;;;;;14.75;3.10;;;15.10;99.90;;;;;;5030795;28;20045;-53
2023/07/13 04:41:05;;;;;;;11.88;3.28;;;15.10;99.90;;;;;;5030123;28;20042;-53
2023/07/13 04:43:32;;;;;;;15.98;2.92;;;15.20;99.90;;;;;;5036675;28;20045;-49
2023/07/13 04:46:07;;;;;;;11.48;2.63;;;15.20;99.90;;;;;;5037157;28;20112;-54
2023/07/13 04:48:34;;;;;;;9.25;2.90;;;15.20;99.90;;;;;;5030320;28;20220;-51
2023/07/13 04:50:59;;;;;;;9.85;3.10;;;15.20;99.90;;;;;;5037545;28;20447;-49
2023/07/13 04:53:25;;;;;;;9.55;2.88;;;15.20;99.90;;;;;;5029510;28;20080;-51
2023/07/13 04:55:51;;;;;;;10.60;3.50;;;15.20;99.90;;;;;;5045021;28;20113;-52
2023/07/13 04:58:17;;;;;;;16.73;3.97;;;15.20;99.90;;;;;;5034480;28;20116;-54
2023/07/13 05:00:43;;;;;;;11.40;2.95;;;15.20;99.90;;;;;;5042053;28;20421;-51
2023/07/13 05:03:09;;;;;;;8.75;2.58;;;15.30;99.90;;;;;;5029638;28;20435;-54
2023/07/13 05:05:34;;;;;;;10.95;3.03;;;15.30;99.90;;;;;;5034806;28;20068;-52
2023/07/13 05:08:00;;;;;;;16.98;3.75;;;15.30;99.90;;;;;;5029482;28;20112;-54
2023/07/13 05:10:26;;;;;;;12.30;3.35;;;15.40;99.90;;;;;;5034198;28;20073;-51
2023/07/13 05:12:51;;;;;;;17.02;2.90;;;15.50;99.90;;;;;;5029254;28;20044;-49
2023/07/13 05:15:22;;;;;;;15.40;3.53;;;15.60;99.90;;;;;;5035115;28;20120;-54
2023/07/13 05:17:49;;;;;;;12.13;3.55;;;15.70;99.90;;;;;;5029206;28;20561;-52
2023/07/13 05:20:16;;;;;;;9.65;3.17;;;15.80;99.90;;;;;;5032218;28;20049;-50
2023/07/13 05:22:42;;;;;;;10.55;3.33;;;15.90;99.90;;;;;;5029180;28;20033;-53
2023/07/13 05:25:09;;;;;;;8.68;3.05;;;16.00;99.90;;;;;;5032907;28;20439;-53
2023/07/13 05:27:35;;;;;;;10.65;2.75;;;16.00;99.90;;;;;;5028714;28;20045;-52
2023/07/13 05:30:03;;;;;;;12.23;3.08;;;16.10;99.90;;;;;;5031468;28;20076;-49
2023/07/13 05:32:28;;;;;;;12.27;3.38;;;16.20;99.90;;;;;;5029048;28;20041;-52
2023/07/13 05:34:54;;;;;;;10.13;2.75;;;16.20;99.90;;;;;;5038916;28;20124;-49
2023/07/13 05:37:19;;;;;;;11.90;3.33;;;16.30;99.90;;;;;;5030847;28;20099;-49
2023/07/13 05:39:45;;;;;;;7.22;2.58;;;16.30;99.90;;;;;;5030094;28;20036;-49
2023/07/13 05:42:11;;;;;;;15.93;3.28;;;16.40;99.90;;;;;;5033940;28;20053;-55
2023/07/13 05:44:36;;;;;;;14.23;3.30;;;16.50;99.90;;;;;;5032330;28;20064;-50
2023/07/13 05:47:02;;;;;;;12.65;3.30;;;16.60;99.90;;;;;;5048532;28;20045;-50
2023/07/13 05:49:30;;;;;;;12.82;2.90;;;16.60;99.90;;;;;;5034005;28;20548;-50
2023/07/13 05:51:55;;;;;;;13.07;3.03;;;16.70;99.90;;;;;;5047875;28;20068;-51
2023/07/13 05:54:21;;;;;;;9.50;2.40;;;16.70;99.90;;;;;;5032124;28;20065;-52
2023/07/13 05:56:47;;;;;;;11.52;3.45;;;16.80;99.90;;;;;;5039142;28;20034;-52
2023/07/13 05:59:12;;;;;;;10.47;2.27;;;16.90;99.90;;;;;;5035546;28;20041;-49
2023/07/13 06:01:38;;;;;;;13.63;3.10;;;17.00;99.90;;;;;;5037710;28;20300;-50
2023/07/13 06:04:04;;;;;;;15.15;2.88;;;17.00;99.90;;;;;;5035862;28;20033;-55
2023/07/13 06:06:30;;;;;;;12.15;2.72;;;17.10;99.90;;;;;;5040361;28;20045;-50
2023/07/13 06:08:55;;;;;;;6.25;2.53;;;17.20;99.90;;;;;;5044712;28;20034;-53
2023/07/13 06:11:23;;;;;;;9.88;2.80;;;17.20;99.90;;;;;;5036864;28;20090;-49
2023/07/13 06:13:49;;;;;;;6.22;2.40;;;17.30;99.90;;;;;;5041932;28;20033;-49
2023/07/13 06:16:16;;;;;;;8.15;2.20;;;17.30;99.90;;;;;;5051650;28;20051;-51
2023/07/13 06:18:42;;;;;;;12.15;2.53;;;17.40;99.90;;;;;;5047159;28;20037;-51
2023/07/13 06:21:10;;;;;;;14.05;2.85;;;17.50;99.90;;;;;;5049127;28;20490;-53
2023/07/13 06:23:36;;;;;;;7.78;2.92;;;17.50;99.90;;;;;;5040056;28;20049;-53
2023/07/13 06:26:02;;;;;;;8.38;2.15;;;17.60;99.90;;;;;;5035042;28;20040;-50
2023/07/13 06:28:28;;;;;;;15.68;3.15;;;17.70;99.90;;;;;;5038821;28;20033;-50
2023/07/13 06:30:54;;;;;;;13.05;2.33;;;17.70;99.90;;;;;;5048937;28;20044;-50
2023/07/13 06:33:20;;;;;;;10.50;2.28;;;17.80;99.90;;;;;;5038293;28;20091;-53
2023/07/13 06:35:45;;;;;;;16.38;3.38;;;17.90;99.90;;;;;;5040156;28;20332;-49
2023/07/13 06:38:11;;;;;;;12.60;2.65;;;18.00;99.90;;;;;;5048624;28;20485;-50
2023/07/13 06:40:36;;;;;;;12.43;2.75;;;18.00;99.90;;;;;;5033710;28;20049;-50
2023/07/13 06:43:02;;;;;;;8.43;2.20;;;18.10;99.90;;;;;;5047582;28;20036;-54
2023/07/13 06:45:27;;;;;;;11.00;2.30;;;18.20;99.90;;;;;;5033895;28;20037;-51
2023/07/13 06:47:53;;;;;;;8.77;1.92;;;18.30;99.90;;;;;;5043901;28;20330;-50
2023/07/13 06:50:18;;;;;;;9.65;3.08;;;18.40;99.90;;;;;;5042620;28;20124;-50
2023/07/13 06:52:44;;;;;;;11.77;2.75;;;18.50;99.90;;;;;;5049607;28;20120;-50
2023/07/13 06:55:10;;;;;;;8.75;3.00;;;18.50;99.90;;;;;;5049434;28;20041;-53
2023/07/13 06:57:35;;;;;;;16.80;2.33;;;18.50;99.90;;;;;;5041984;28;20110;-53
2023/07/13 07:00:01;;;;;;;7.43;2.55;;;18.60;99.90;;;;;;5041725;28;20033;-53
2023/07/13 07:02:26;;;;;;;8.07;2.80;;;18.70;99.90;;;;;;5039070;28;20537;-50
2023/07/13 07:04:54;;;;;;;14.02;4.05;;;18.80;99.90;;;;;;5042327;28;20040;-53
2023/07/13 07:07:19;;;;;;;10.05;2.58;;;18.90;99.90;;;;;;5035026;28;20401;-51
2023/07/13 07:09:45;;;;;;;10.50;2.97;;;19.00;99.90;;;;;;5044211;28;20041;-52
2023/07/13 07:12:10;;;;;;;12.52;2.78;;;19.10;99.90;;;;;;5039955;28;20052;-52
2023/07/13 07:14:36;;;;;;;;;;;19.00;99.90;;;;;;5046202;28;20111;-52
2023/07/13 07:17:01;;;;;;;10.98;3.13;;;19.00;99.90;;;;;;5050479;28;20003;-50
2023/07/13 07:19:29;;;;;;;;;;;19.00;99.90;;;;;;5051246;28;20041;-50
2023/07/13 07:21:55;;;;;;;9.10;2.38;;;19.10;99.90;;;;;;5051299;28;19978;-50
2023/07/13 07:24:20;;;;;;;12.50;2.80;;;19.10;99.90;;;;;;5050146;28;20072;-50
2023/07/13 07:26:46;;;;;;;10.85;3.70;;;19.10;99.90;;;;;;5050678;28;20047;-52
2023/07/13 07:29:11;;;;;;;;;;;19.10;99.90;;;;;;5051567;28;20045;-49
2023/07/13 07:31:37;;;;;;;13.25;3.22;;;19.10;99.90;;;;;;5050859;28;19916;-50
2023/07/13 07:34:03;;;;;;;9.43;2.42;;;19.00;99.90;;;;;;5049929;28;20120;-53
2023/07/13 07:36:28;;;;;;;7.43;3.33;;;18.90;99.90;;;;;;5050769;28;20033;-52
2023/07/13 07:38:54;;;;;;;8.63;2.67;;;19.00;99.90;;;;;;5048811;28;20044;-50
2023/07/13 07:41:20;;;;;;;10.45;3.50;;;18.90;99.90;;;;;;5046572;28;20037;-50
2023/07/13 07:43:45;;;;;;;;;;;18.90;99.90;;;;;;5050407;28;20036;-52
2023/07/13 07:46:11;;;;;;;11.65;3.15;;;18.90;99.90;;;;;;5050089;28;19924;-53
2023/07/13 07:48:36;;;;;;;13.70;3.45;;;18.90;99.90;;;;;;5050025;28;20048;-50
2023/07/13 07:51:02;;;;;;;9.68;3.08;;;18.80;99.90;;;;;;5049947;28;20036;-50
2023/07/13 07:53:28;;;;;;;9.75;3.28;;;18.80;99.90;;;;;;5049568;28;20049;-52
2023/07/13 07:55:53;;;;;;;;;;;18.80;99.90;;;;;;5047222;28;20029;-50
2023/07/13 07:58:19;;;;;;;9.20;3.28;;;18.90;99.90;;;;;;5049300;28;20341;-52
2023/07/13 08:00:44;;;;;;;11.43;3.58;;;18.80;99.90;;;;;;5050302;28;20045;-51
2023/07/13 08:03:10;;;;;;;16.48;4.55;;;18.90;99.90;;;;;;5050356;28;20037;-50
2023/07/13 08:05:36;;;;;;;15.40;3.40;;;18.90;99.90;;;;;;5049679;28;20375;-50
2023/07/13 08:08:03;;;;;;;13.95;3.97;;;19.00;99.90;;;;;;5049746;28;20037;-49
2023/07/13 08:10:28;;;;;;;13.95;3.40;;;19.10;99.90;;;;;;5050477;28;20056;-50
2023/07/13 08:12:54;;;;;;;11.43;3.78;;;19.10;99.90;;;;;;5050283;28;20041;-50
2023/07/13 08:15:20;;;;;;;10.55;3.85;;;19.00;99.90;;;;;;5049974;28;20079;-51
2023/07/13 08:17:47;;;;;;;11.82;3.92;;;19.10;99.90;;;;;;5048049;28;20601;-51
2023/07/13 08:20:13;;;;;;;13.48;4.20;;;19.10;99.90;;;;;;5047724;28;20041;-49
2023/07/13 08:22:39;;;;;;;;;;;19.20;99.90;;;;;;5050152;28;20041;-50
2023/07/13 08:25:05;;;;;;;13.10;5.30;;;19.20;99.90;;;;;;5049730;28;19997;-51
2023/07/13 08:27:30;;;;;;;;;;;19.30;99.90;;;;;;5050559;28;20040;-50
2023/07/13 08:29:56;;;;;;;13.40;4.30;;;19.30;99.90;;;;;;5048870;28;19916;-51
2023/07/13 08:32:23;;;;;;;18.20;4.57;;;19.40;99.90;;;;;;5050363;28;20070;-53
2023/07/13 08:34:49;;;;;;;12.57;5.00;;;19.40;99.90;;;;;;5049278;28;20118;-50
2023/07/13 08:37:15;;;;;;;15.90;5.47;;;19.50;99.90;;;;;;5049423;28;20625;-50
2023/07/13 08:39:41;;;;;;;10.85;4.28;;;19.50;99.90;;;;;;5049209;28;20033;-50
2023/07/13 08:42:15;;;;;;;20.38;5.20;;;19.50;99.90;;;;;;5065303;28;20037;-50
2023/07/13 08:45:11;;;;;;;13.57;5.35;;;19.50;99.90;;;;;;5059708;28;20041;-50
2023/07/13 08:47:44;;;;;;;13.98;6.30;;;19.50;99.90;;;;;;5049383;28;20052;-50
2023/07/13 08:50:17;;;;;;;12.85;5.88;;;19.40;99.90;;;;;;5046142;28;20046;-51
2023/07/13 08:52:44;;;;;;;14.13;5.60;;;19.40;99.90;;;;;;5049637;28;20187;-52
2023/07/13 08:55:20;;;;;;;17.67;5.97;;;19.50;99.90;;;;;;5049255;28;20534;-52
2023/07/13 08:57:52;;;;;;;17.50;6.03;;;19.70;99.90;;;;;;5048411;28;20056;-51
2023/07/13 09:00:18;;;;;;;15.18;5.53;;;19.90;99.90;;;;;;5046028;28;20052;-52
2023/07/13 09:02:46;;;;;;;12.65;4.43;;;20.10;99.90;;;;;;5046594;28;20182;-53
2023/07/13 09:05:38;;;;;;;15.45;5.70;;;20.20;99.90;;;;;;5047782;28;20033;-51
2023/07/13 09:08:17;;;;;;;12.45;5.40;;;20.20;99.90;;;;;;5048063;28;20067;-50
2023/07/13 09:10:58;;;;;;;12.27;5.80;;;20.10;99.90;;;;;;5042901;28;20391;-51
2023/07/13 09:13:34;;;;;;;11.00;4.57;;;20.10;99.90;;;;;;5045981;28;20045;-51
2023/07/13 09:16:01;;;;;;;10.57;4.68;;;20.20;99.90;;;;;;5043054;28;20037;-50
2023/07/13 09:18:33;;;;;;;9.05;4.63;;;20.20;99.90;;;;;;5050285;28;20037;-53
2023/07/13 09:21:11;;;;;;;14.20;3.53;;;20.20;99.90;;;;;;5052765;28;20087;-51
2023/07/13 09:23:38;;;;;;;10.98;4.05;;;20.20;99.90;;;;;;5053326;28;20470;-52
2023/07/13 09:26:06;;;;;;;14.30;3.95;;;20.10;99.90;;;;;;5052458;28;20398;-51
2023/07/13 09:28:39;;;;;;;8.88;3.65;;;20.00;99.90;;;;;;5043702;28;20071;-51
2023/07/13 09:31:12;;;;;;;8.15;3.20;;;19.90;99.90;;;;;;5037729;28;20052;-53
2023/07/13 09:33:38;;;;;;;2.88;0.77;;;19.70;99.90;;;;;;5036728;28;20045;-48
2023/07/13 09:36:23;;;;;;;1.60;0.40;;;19.30;99.90;;;;;;5045561;28;20041;-51
2023/07/13 09:38:59;;;;;;;2.20;0.50;;;18.80;99.90;;;;;;5050564;28;20071;-51
2023/07/13 09:41:38;;;;;;;4.20;0.95;;;18.40;99.90;;;;;;5048186;28;20045;-53
2023/07/13 09:44:06;;;;;;;7.57;0.47;;;17.90;99.90;;;;;;5042194;28;20048;-52
2023/07/13 09:46:32;;;;;;;1.33;0.50;;;17.40;99.90;;;;;;5041599;28;20776;-53
2023/07/13 09:48:57;;;;;;;3.08;0.40;;;17.10;99.90;;;;;;5041059;28;20120;-51
2023/07/13 09:51:23;;;;;;;1.52;0.45;;;16.80;99.90;;;;;;5047386;28;20037;-52
2023/07/13 09:53:49;;;;;;;2.67;0.55;;;16.70;99.90;;;;;;5050845;28;20036;-50
2023/07/13 09:56:23;;;;;;;2.88;0.60;;;16.70;99.90;;;;;;5050498;28;20457;-50
2023/07/13 09:58:49;;;;;;;1.90;0.43;;;16.70;99.90;;;;;;5051651;28;20029;-50
2023/07/13 10:01:15;;;;;;;3.13;0.60;;;16.70;99.90;;;;;;5048306;28;20512;-51
2023/07/13 10:03:53;;;;;;;2.88;0.63;;;16.80;99.90;;;;;;5048304;28;20079;-52
2023/07/13 10:06:23;;;;;;;2.47;0.57;;;16.90;99.90;;;;;;5051302;28;20113;-50
2023/07/13 10:08:53;;;;;;;1.23;0.50;;;17.10;99.90;;;;;;5049235;28;20033;-53
2023/07/13 10:11:33;;;;;;;2.20;0.63;;;17.20;99.90;;;;;;5046462;28;20545;-52
2023/07/13 10:14:02;;;;;;;0.80;0.30;;;17.50;99.90;;;;;;5048249;28;20035;-54
2023/07/13 10:16:33;;;;;;;0.40;0.30;;;17.60;99.90;;;;;;5045659;28;20040;-53
2023/07/13 10:19:22;;;;;;;1.02;0.40;;;17.70;99.90;;;;;;5049713;28;20033;-53
2023/07/13 10:21:59;;;;;;;0.52;0.40;;;17.70;99.90;;;;;;5049009;28;20052;-52
2023/07/13 10:24:27;;;;;;;0.90;0.50;;;17.90;99.90;;;;;;5046498;28;20049;-51
2023/07/13 10:27:04;;;;;;;1.20;0.50;;;18.00;99.90;;;;;;5043958;28;20116;-50
2023/07/13 10:29:36;;;;;;;1.15;0.60;;;18.30;99.90;;;;;;5043823;28;20086;-53
2023/07/13 10:32:03;;;;;;;1.42;0.82;;;18.50;99.90;;;;;;5040971;28;20140;-55
2023/07/13 10:34:29;;;;;;;1.98;0.90;;;18.60;99.90;;;;;;5047664;28;20033;-53
2023/07/13 10:36:55;;;;;;;2.67;1.00;;;18.70;99.90;;;;;;5046633;28;20036;-50
2023/07/13 10:39:27;;;;;;;4.35;1.58;;;18.90;99.90;;;;;;5047426;28;20052;-52
2023/07/13 10:41:58;;;;;;;4.10;2.13;;;19.10;99.90;;;;;;5041693;28;20038;-51
2023/07/13 10:44:28;;;;;;;7.65;2.42;;;19.20;99.90;;;;;;5044550;28;20242;-53
2023/07/13 10:47:03;;;;;;;4.68;2.58;;;19.40;99.90;;;;;;5039479;28;20032;-52
2023/07/13 10:49:31;;;;;;;6.63;2.35;;;19.60;99.90;;;;;;5036687;28;20095;-50
2023/07/13 10:51:57;;;;;;;6.00;2.58;;;19.80;99.90;;;;;;5044382;28;20512;-49
2023/07/13 10:54:31;;;;;;;5.03;2.33;;;19.90;99.90;;;;;;5038426;28;20033;-52
2023/07/13 10:57:20;;;;;;;6.05;1.95;;;20.00;99.90;;;;;;5042110;28;20422;-51
2023/07/13 11:00:14;;;;;;;7.47;2.90;;;20.00;99.90;;;;;;5038418;28;20091;-50
2023/07/13 11:02:40;;;;;;;3.92;2.85;;;19.90;99.90;;;;;;5034838;28;20041;-54
2023/07/13 11:05:24;;;;;;;6.70;3.47;;;19.90;99.90;;;;;;5041129;28;20409;-50
2023/07/13 11:08:20;;;;;;;8.13;3.13;;;19.80;99.90;;;;;;5042199;28;20045;-55
2023/07/13 11:10:55;;;;;;;4.32;3.00;;;19.80;99.90;;;;;;5043882;28;20048;-51
2023/07/13 11:13:58;;;;;;;7.25;4.22;;;19.70;99.90;;;;;;5040382;28;20371;-53
2023/07/13 11:16:23;;;;;;;6.63;4.35;;;19.70;99.90;;;;;;5038096;28;20037;-51
2023/07/13 11:19:12;;;;;;;9.02;4.75;;;19.60;99.90;;;;;;5038434;28;20402;-53
2023/07/13 11:22:07;;;;;;;2.88;0.90;;;19.40;99.90;;;;;;5046698;28;20094;-51
2023/07/13 11:24:50;;;;;;;2.10;0.63;;;19.10;99.90;;;;;;5039767;28;20628;-52
2023/07/13 11:27:57;;;;;;;1.67;1.00;;;18.80;99.90;;;;;;5046139;28;20425;-51
2023/07/13 11:30:25;;;;;;;3.00;0.95;;;18.40;99.90;;;;;;4960255;28;20142;-50
2023/07/13 11:33:14;;;;;;;1.42;0.60;;;18.10;99.90;;;;;;5025172;28;20584;-54
2023/07/13 11:35:58;;;;;;;2.40;0.50;;;17.90;99.90;;;;;;5041836;28;20041;-53
2023/07/13 11:38:30;;;;;;;2.80;0.85;;;17.80;99.90;;;;;;5044862;28;20037;-53
2023/07/13 11:40:58;;;;;;;3.03;1.15;;;17.90;99.90;;;;;;5039556;28;20116;-52
2023/07/13 11:43:24;;;;;;;2.03;0.88;;;17.90;99.90;;;;;;5040715;28;20045;-53
2023/07/13 11:45:50;;;;;;;0.80;0.68;;;17.90;99.90;;;;;;5035661;28;20510;-50
2023/07/13 11:48:23;;;;;;;1.90;0.85;;;18.00;99.90;;;;;;5041923;28;20041;-54
2023/07/13 11:50:56;;;;;;;2.97;1.30;;;18.20;99.90;;;;;;5044508;28;20494;-50
2023/07/13 11:53:22;;;;;;;1.73;1.30;;;18.30;99.90;;;;;;5040015;28;20510;-51
2023/07/13 11:55:47;;;;;;;3.10;2.05;;;18.40;99.90;;;;;;5039140;28;20669;-53
2023/07/13 11:58:20;;;;;;;3.58;1.52;;;18.60;99.90;;;;;;5040331;28;20037;-51
2023/07/13 12:00:46;;;;;;;3.38;1.63;;;18.80;99.90;;;;;;5044057;28;20041;-51
2023/07/13 12:03:12;;;;;;;;;;;18.90;99.90;;;;;;5045411;28;20033;-54
2023/07/13 12:05:57;;;;;;;2.40;1.98;;;19.00;99.90;;;;;;5041843;28;20397;-57
2023/07/13 12:08:23;;;;;;;3.50;2.35;;;19.10;99.90;;;;;;5031493;28;20026;-55
2023/07/13 12:10:57;;;;;;;4.03;2.60;;;19.20;99.90;;;;;;5038829;28;20091;-54
2023/07/13 12:13:23;;;;;;;5.90;2.45;;;19.40;99.90;;;;;;5040308;28;20029;-53
2023/07/13 12:15:48;;;;;;;3.35;2.35;;;19.50;99.90;;;;;;5044463;28;20200;-50
2023/07/13 12:18:18;;;;;;;4.53;3.00;;;19.70;99.90;;;;;;5044276;28;20084;-56
2023/07/13 12:20:45;;;;;;;9.20;2.90;;;19.70;99.90;;;;;;5044357;28;20033;-56
2023/07/13 12:23:25;;;;;;;5.85;3.03;;;19.80;99.90;;;;;;5044881;28;20499;-55
2023/07/13 12:25:51;;;;;;;5.88;3.10;;;19.90;99.90;;;;;;5039973;28;20401;-56
2023/07/13 12:28:36;;;;;;;5.00;3.30;;;20.10;99.90;;;;;;5042746;28;20083;-54
2023/07/13 12:31:06;;;;;;;5.50;2.53;;;20.20;99.90;;;;;;5043524;28;20350;-53
2023/07/13 12:33:33;;;;;;;6.05;2.58;;;20.30;99.90;;;;;;5044401;28;20048;-55
2023/07/13 12:36:05;;;;;;;3.45;1.95;;;20.40;99.90;;;;;;5044125;28;20116;-53
2023/07/13 12:38:32;;;;;;;5.68;2.53;;;20.50;99.90;;;;;;5043271;28;20044;-51
2023/07/13 12:40:58;;;;;;;5.90;3.03;;;20.50;99.90;;;;;;5044690;28;20041;-51
2023/07/13 12:43:25;;;;;;;;;;;20.50;99.90;;;;;;5044825;28;20132;-51
2023/07/13 12:46:24;;;;;;;5.45;3.60;;;20.50;99.90;;;;;;5043708;28;20302;-54
2023/07/13 12:48:53;;;;;;;5.97;3.08;;;20.70;99.90;;;;;;4984616;28;20469;-51
2023/07/13 12:51:24;;;;;;;7.00;2.85;;;20.80;99.90;;;;;;5041092;28;20280;-51
2023/07/13 12:54:05;;;;;;;5.22;2.38;;;20.90;99.90;;;;;;5046098;28;20075;-54